Time;durP1;ratioP1;P1;durP2;ratioP2;P2;SDS_P1;SDS_P2;PMS_P1;PMS_P2;Temp;Humidity;BMP_temperature;BMP_pressure;BME280_temperature;BME280_humidity;BME280_pressure;Samples;Min_cycle;Max_cycle;Signal;HPM_P1;HPM_P2
2022/10/30 00:00:52;;;;;;;18.90;7.93;;;15.80;99.90;;;;;;5040816;28;20205;-72
2022/10/30 00:03:19;;;;;;;14.90;8.17;;;15.80;99.90;;;;;;5050415;28;20211;-72
2022/10/30 00:05:48;;;;;;;14.67;8.03;;;15.90;99.90;;;;;;5045051;28;20222;-71
2022/10/30 00:08:17;;;;;;;18.63;8.33;;;15.90;99.90;;;;;;5046287;28;20295;-70
2022/10/30 00:10:45;;;;;;;13.57;7.40;;;15.90;99.90;;;;;;5041764;28;20265;-71
2022/10/30 00:13:12;;;;;;;16.90;8.50;;;15.90;99.90;;;;;;5048280;28;20246;-71
2022/10/30 00:15:45;;;;;;;17.80;8.13;;;15.90;99.90;;;;;;5044635;28;20233;-72
2022/10/30 00:18:12;;;;;;;19.67;7.37;;;15.90;99.90;;;;;;5045478;28;20331;-70
2022/10/30 00:20:39;;;;;;;18.40;7.53;;;16.00;99.90;;;;;;5029626;28;20320;-72
2022/10/30 00:23:05;;;;;;;19.80;7.93;;;16.00;99.90;;;;;;5042502;28;20201;-72
2022/10/30 00:25:34;;;;;;;15.00;8.70;;;16.00;99.90;;;;;;5039068;28;20556;-71
2022/10/30 00:28:05;;;;;;;18.10;8.67;;;16.00;99.90;;;;;;5047857;28;20288;-71
2022/10/30 00:30:32;;;;;;;16.65;8.00;;;16.00;99.90;;;;;;5044535;28;20709;-71
2022/10/30 00:32:59;;;;;;;16.45;8.60;;;16.00;99.90;;;;;;5041535;28;20543;-71
2022/10/30 00:35:26;;;;;;;18.20;7.90;;;16.00;99.90;;;;;;5039490;28;20220;-70
2022/10/30 00:37:53;;;;;;;17.35;8.20;;;16.00;99.90;;;;;;5047221;28;20247;-71
2022/10/30 00:40:21;;;;;;;14.07;8.00;;;16.00;99.90;;;;;;5042716;28;20645;-71
2022/10/30 00:42:48;;;;;;;19.67;8.38;;;16.00;99.90;;;;;;5041941;28;20658;-72
2022/10/30 00:45:18;;;;;;;22.13;8.30;;;15.90;99.90;;;;;;5048448;28;20214;-72
2022/10/30 00:48:01;;;;;;;18.07;8.67;;;16.00;99.90;;;;;;5044938;28;20292;-71
2022/10/30 00:50:33;;;;;;;18.97;9.47;;;15.90;99.90;;;;;;5041501;28;20287;-72
2022/10/30 00:53:07;;;;;;;21.53;9.73;;;15.80;99.90;;;;;;5046071;28;20313;-72
2022/10/30 00:55:38;;;;;;;16.50;8.77;;;15.80;99.90;;;;;;5040477;28;20292;-72
2022/10/30 00:58:09;;;;;;;16.93;9.33;;;15.70;99.90;;;;;;5040278;28;20224;-72
2022/10/30 01:00:39;;;;;;;17.60;9.70;;;15.60;99.90;;;;;;5026691;28;20255;-71
2022/10/30 01:03:06;;;;;;;18.40;9.10;;;15.60;99.90;;;;;;5042031;28;20229;-73
2022/10/30 01:05:35;;;;;;;17.87;9.53;;;15.50;99.90;;;;;;5046798;28;20208;-71
2022/10/30 01:08:01;;;;;;;18.53;9.00;;;15.50;99.90;;;;;;5047642;28;20248;-73
2022/10/30 01:10:28;;;;;;;18.77;9.93;;;15.40;99.90;;;;;;5041736;28;20208;-72
2022/10/30 01:12:58;;;;;;;15.63;9.00;;;15.40;99.90;;;;;;5044728;28;20709;-73
2022/10/30 01:15:38;;;;;;;19.17;9.27;;;15.30;99.90;;;;;;5039298;28;20229;-72
2022/10/30 01:18:32;;;;;;;22.50;9.73;;;15.30;99.90;;;;;;5037814;28;20296;-71
2022/10/30 01:21:11;;;;;;;19.00;9.77;;;15.20;99.90;;;;;;5031018;28;20319;-69
2022/10/30 01:24:07;;;;;;;20.10;10.33;;;15.20;99.90;;;;;;5042796;28;20219;-72
2022/10/30 01:26:59;;;;;;;17.23;10.00;;;15.10;99.90;;;;;;5007126;28;20225;-71
2022/10/30 01:29:34;;;;;;;15.63;9.57;;;15.10;99.90;;;;;;5036154;28;20293;-72
2022/10/30 01:32:06;;;;;;;18.93;10.47;;;15.00;99.90;;;;;;5051127;28;20208;-71
2022/10/30 01:34:45;;;;;;;19.23;9.70;;;14.90;99.90;;;;;;5043148;28;20719;-71
2022/10/30 01:37:35;;;;;;;21.33;10.20;;;14.90;99.90;;;;;;5042992;28;20748;-70
2022/10/30 01:40:05;;;;;;;17.93;9.10;;;14.90;99.90;;;;;;5020340;28;20727;-71
2022/10/30 01:42:42;;;;;;;18.57;10.00;;;14.80;99.90;;;;;;5042966;28;20285;-71
2022/10/30 01:45:22;;;;;;;16.80;9.33;;;14.80;99.90;;;;;;5033622;28;20251;-72
2022/10/30 01:47:58;;;;;;;17.63;9.40;;;14.80;99.90;;;;;;5037005;28;20204;-72
2022/10/30 01:50:54;;;;;;;16.87;10.10;;;14.70;99.90;;;;;;5026016;28;20742;-71
2022/10/30 01:53:35;;;;;;;16.37;9.50;;;14.70;99.90;;;;;;5040337;28;20287;-71
2022/10/30 01:56:17;;;;;;;21.87;10.57;;;14.70;99.90;;;;;;5039662;28;20324;-71
2022/10/30 01:59:20;;;;;;;19.83;9.83;;;14.70;99.90;;;;;;5046556;28;20667;-72
2022/10/30 02:01:47;;;;;;;18.93;10.17;;;14.60;99.90;;;;;;5044245;28;20824;-71
2022/10/30 02:04:15;;;;;;;17.10;9.87;;;14.60;99.90;;;;;;5040759;28;20210;-72
2022/10/30 02:06:41;;;;;;;20.13;10.37;;;14.50;99.90;;;;;;5046008;28;20300;-71
2022/10/30 02:09:08;;;;;;;21.00;10.00;;;14.50;99.90;;;;;;5041056;28;20297;-71
2022/10/30 02:11:37;;;;;;;23.30;10.87;;;14.50;99.90;;;;;;5043585;28;20740;-71
2022/10/30 02:14:06;;;;;;;21.90;10.53;;;14.50;99.90;;;;;;5042926;28;20349;-71
2022/10/30 02:16:37;;;;;;;18.13;9.93;;;14.50;99.90;;;;;;5023899;28;20798;-73
2022/10/30 02:19:06;;;;;;;17.90;11.00;;;14.50;99.90;;;;;;5043857;28;20631;-72
2022/10/30 02:21:33;;;;;;;22.10;10.47;;;14.50;99.90;;;;;;5038221;28;20228;-71
2022/10/30 02:24:00;;;;;;;24.83;10.63;;;14.50;99.90;;;;;;5041609;28;20589;-71
2022/10/30 02:26:27;;;;;;;18.93;11.53;;;14.50;99.90;;;;;;5040946;28;20220;-72
2022/10/30 02:28:53;;;;;;;22.87;11.30;;;14.50;99.90;;;;;;5037860;28;20320;-72
2022/10/30 02:31:23;;;;;;;21.53;11.60;;;14.50;99.90;;;;;;5040215;28;20201;-71
2022/10/30 02:33:50;;;;;;;23.40;11.83;;;14.50;99.90;;;;;;5043407;28;20217;-72
2022/10/30 02:36:17;;;;;;;20.37;11.03;;;14.40;99.90;;;;;;5041708;28;20689;-71
2022/10/30 02:38:43;;;;;;;25.83;11.37;;;14.40;99.90;;;;;;5027077;28;20207;-71
2022/10/30 02:41:10;;;;;;;18.07;10.93;;;14.40;99.90;;;;;;5041197;28;20494;-72
2022/10/30 02:43:38;;;;;;;21.20;11.63;;;14.40;99.90;;;;;;5043362;28;20329;-71
2022/10/30 02:46:04;;;;;;;24.73;11.53;;;14.50;99.90;;;;;;5038807;28;20270;-71
2022/10/30 02:48:31;;;;;;;25.67;11.23;;;14.40;99.90;;;;;;5046095;28;20287;-71
2022/10/30 02:51:00;;;;;;;22.13;11.20;;;14.40;99.90;;;;;;5039760;28;20618;-72
2022/10/30 02:53:27;;;;;;;24.70;10.77;;;14.40;99.90;;;;;;5046631;28;20307;-71
2022/10/30 02:55:54;;;;;;;19.23;10.73;;;14.30;99.90;;;;;;5046615;28;20198;-71
2022/10/30 02:58:20;;;;;;;20.37;10.80;;;14.30;99.90;;;;;;5051358;28;20205;-71
2022/10/30 03:00:47;;;;;;;22.30;11.83;;;14.30;99.90;;;;;;5027932;28;20213;-71
2022/10/30 03:03:14;;;;;;;24.33;10.53;;;14.30;99.90;;;;;;5034420;28;20861;-70
2022/10/30 03:05:45;;;;;;;19.90;10.17;;;14.30;99.90;;;;;;5043042;28;20411;-70
2022/10/30 03:08:12;;;;;;;26.70;11.40;;;14.30;99.90;;;;;;5027328;28;20201;-72
2022/10/30 03:10:39;;;;;;;19.77;11.13;;;14.30;99.90;;;;;;5046800;28;20205;-71
2022/10/30 03:13:05;;;;;;;22.20;10.63;;;14.20;99.90;;;;;;5048917;28;20591;-72
2022/10/30 03:15:32;;;;;;;29.77;11.43;;;14.70;99.90;;;;;;5048381;28;20229;-71
2022/10/30 03:17:59;;;;;;;26.07;11.27;;;14.20;99.90;;;;;;5026048;28;20705;-71
2022/10/30 03:20:26;;;;;;;20.40;11.20;;;14.20;99.90;;;;;;5043668;28;20631;-71
2022/10/30 03:22:53;;;;;;;21.70;11.03;;;14.20;99.90;;;;;;5025403;28;20223;-72
2022/10/30 03:25:22;;;;;;;19.77;10.67;;;14.20;99.90;;;;;;5040008;28;20206;-71
2022/10/30 03:27:49;;;;;;;23.73;11.67;;;14.10;99.90;;;;;;5031177;28;20287;-72
2022/10/30 03:30:17;;;;;;;22.37;11.50;;;14.10;99.90;;;;;;5045913;28;20565;-71
2022/10/30 03:32:43;;;;;;;24.00;11.77;;;14.10;99.90;;;;;;5047492;28;20285;-71
2022/10/30 03:35:10;;;;;;;23.50;11.27;;;14.10;99.90;;;;;;5025567;28;20221;-72
2022/10/30 03:37:37;;;;;;;19.17;10.53;;;14.20;99.90;;;;;;5025891;28;20304;-71
2022/10/30 03:40:04;;;;;;;21.37;11.50;;;14.20;99.90;;;;;;5050465;28;20197;-71
2022/10/30 03:42:31;;;;;;;23.77;11.20;;;14.20;99.90;;;;;;5041045;28;20284;-71
2022/10/30 03:44:57;;;;;;;23.17;11.47;;;14.20;99.90;;;;;;5046829;28;20289;-71
2022/10/30 03:47:24;;;;;;;17.37;10.60;;;14.20;99.90;;;;;;5044226;28;20198;-71
2022/10/30 03:49:51;;;;;;;19.43;11.33;;;14.20;99.90;;;;;;5024653;28;20316;-71
2022/10/30 03:52:17;;;;;;;22.00;11.37;;;14.20;99.90;;;;;;5042539;28;20304;-72
2022/10/30 03:54:44;;;;;;;18.23;11.27;;;14.20;99.90;;;;;;5046686;28;20710;-71
2022/10/30 03:57:11;;;;;;;23.23;11.33;;;14.20;99.90;;;;;;5047749;28;20692;-71
2022/10/30 03:59:37;;;;;;;22.30;11.70;;;14.20;99.90;;;;;;5047512;28;20247;-70
2022/10/30 04:02:04;;;;;;;20.57;10.33;;;14.20;99.90;;;;;;5043871;28;20219;-72
2022/10/30 04:04:31;;;;;;;21.77;11.70;;;14.20;99.90;;;;;;5043060;28;20297;-72
2022/10/30 04:06:58;;;;;;;23.17;11.20;;;14.20;99.90;;;;;;5041638;28;20222;-70
2022/10/30 04:09:24;;;;;;;25.60;12.10;;;14.20;99.90;;;;;;5044610;28;20202;-71
2022/10/30 04:11:51;;;;;;;29.43;11.43;;;14.10;99.90;;;;;;5042590;28;20551;-71
2022/10/30 04:14:18;;;;;;;19.87;11.43;;;14.10;99.90;;;;;;5045245;28;20307;-72
2022/10/30 04:16:44;;;;;;;25.23;12.57;;;14.10;99.90;;;;;;5020267;28;20238;-71
2022/10/30 04:19:11;;;;;;;21.17;11.00;;;14.10;99.90;;;;;;5031325;28;20290;-72
2022/10/30 04:21:38;;;;;;;20.87;11.23;;;14.10;99.90;;;;;;5026139;28;20281;-71
2022/10/30 04:24:05;;;;;;;20.00;11.73;;;14.00;99.90;;;;;;5007585;28;20685;-71
2022/10/30 04:26:31;;;;;;;22.73;11.87;;;14.00;99.90;;;;;;5021658;28;20281;-71
2022/10/30 04:28:58;;;;;;;21.97;11.30;;;14.00;99.90;;;;;;5022199;28;20217;-72
2022/10/30 04:31:25;;;;;;;23.57;11.63;;;14.00;99.90;;;;;;5025675;28;20206;-71
2022/10/30 04:33:51;;;;;;;24.30;11.67;;;13.80;99.90;;;;;;5026504;28;20233;-72
2022/10/30 04:36:20;;;;;;;21.83;11.53;;;13.80;99.90;;;;;;5021784;28;20280;-73
2022/10/30 04:38:47;;;;;;;20.47;11.10;;;13.80;99.90;;;;;;5024223;28;20216;-71
2022/10/30 04:41:13;;;;;;;16.77;11.00;;;13.80;99.90;;;;;;5026419;28;20254;-71
2022/10/30 04:43:40;;;;;;;22.50;11.73;;;13.70;99.90;;;;;;5027192;28;20217;-71
2022/10/30 04:46:07;;;;;;;22.33;11.57;;;13.80;99.90;;;;;;5009150;28;20209;-71
2022/10/30 04:48:36;;;;;;;25.87;12.10;;;13.70;99.90;;;;;;5005075;28;20220;-71
2022/10/30 04:51:02;;;;;;;26.50;12.47;;;13.70;99.90;;;;;;5006044;28;20222;-71
2022/10/30 04:53:29;;;;;;;23.27;13.03;;;13.60;99.90;;;;;;5027237;28;20219;-72
2022/10/30 04:55:56;;;;;;;26.93;12.60;;;13.60;99.90;;;;;;5022000;28;20286;-71
2022/10/30 04:58:23;;;;;;;22.07;12.13;;;13.60;99.90;;;;;;5022371;28;20245;-70
2022/10/30 05:00:49;;;;;;;26.43;12.47;;;13.60;99.90;;;;;;5024829;28;20257;-71
2022/10/30 05:03:25;;;;;;;22.33;11.90;;;13.50;99.90;;;;;;5022183;28;20205;-71
2022/10/30 05:06:04;;;;;;;21.70;11.97;;;13.50;99.90;;;;;;5025792;28;20275;-72
2022/10/30 05:08:32;;;;;;;26.40;11.90;;;13.50;99.90;;;;;;5025177;28;20343;-72
2022/10/30 05:11:02;;;;;;;31.57;13.13;;;13.40;99.90;;;;;;5024984;28;20224;-72
2022/10/30 05:13:29;;;;;;;20.50;11.90;;;13.40;99.90;;;;;;5021169;28;20220;-72
2022/10/30 05:15:56;;;;;;;23.40;11.70;;;13.40;99.90;;;;;;5033156;28;20366;-71
2022/10/30 05:18:22;;;;;;;21.27;12.07;;;13.30;99.90;;;;;;5043385;28;20670;-71
2022/10/30 05:20:49;;;;;;;25.07;11.70;;;13.30;99.90;;;;;;5041840;28;20726;-72
2022/10/30 05:23:16;;;;;;;24.33;13.33;;;13.20;99.90;;;;;;5044098;28;20713;-72
2022/10/30 05:25:43;;;;;;;23.03;12.97;;;13.10;99.90;;;;;;5025877;28;20201;-72
2022/10/30 05:28:09;;;;;;;25.50;13.07;;;13.10;99.90;;;;;;5025567;28;20217;-71
2022/10/30 05:30:36;;;;;;;22.53;13.00;;;13.10;99.90;;;;;;5048552;28;20208;-72
2022/10/30 05:33:05;;;;;;;22.80;12.07;;;13.10;99.90;;;;;;5038444;28;20299;-72
2022/10/30 05:35:33;;;;;;;25.47;12.93;;;13.00;99.90;;;;;;5044021;28;20264;-71
2022/10/30 05:38:02;;;;;;;24.40;12.73;;;13.30;99.90;;;;;;5043827;28;20216;-71
2022/10/30 05:40:28;;;;;;;31.73;14.27;;;13.00;99.90;;;;;;5020333;28;20197;-70
2022/10/30 05:42:55;;;;;;;29.67;14.20;;;12.90;99.90;;;;;;5044788;28;20247;-70
2022/10/30 05:45:23;;;;;;;28.03;14.17;;;13.00;99.90;;;;;;5038847;28;20202;-71
2022/10/30 05:47:54;;;;;;;23.73;12.43;;;12.90;99.90;;;;;;5043450;28;20283;-70
2022/10/30 05:50:22;;;;;;;28.90;14.43;;;12.90;99.90;;;;;;5044066;28;20201;-71
2022/10/30 05:52:49;;;;;;;29.70;14.43;;;12.80;99.90;;;;;;5046769;28;20227;-72
2022/10/30 05:55:16;;;;;;;31.30;14.13;;;12.80;99.90;;;;;;5048607;28;20272;-71
2022/10/30 05:57:42;;;;;;;28.13;14.53;;;12.80;99.90;;;;;;5054113;28;20232;-70
2022/10/30 06:00:10;;;;;;;24.80;14.57;;;12.70;99.90;;;;;;5046441;28;20245;-71
2022/10/30 06:02:37;;;;;;;29.67;14.23;;;12.70;99.90;;;;;;5028908;28;20205;-71
2022/10/30 06:05:04;;;;;;;24.43;14.60;;;12.70;99.90;;;;;;5035712;28;20281;-71
2022/10/30 06:07:32;;;;;;;34.13;16.27;;;12.70;99.90;;;;;;5046325;28;20747;-71
2022/10/30 06:09:58;;;;;;;29.10;15.40;;;12.70;99.90;;;;;;5039814;28;20678;-71
2022/10/30 06:12:25;;;;;;;26.80;14.53;;;12.60;99.90;;;;;;5043326;28;20289;-71
2022/10/30 06:14:52;;;;;;;22.73;13.30;;;12.60;99.90;;;;;;5044732;28;20864;-71
2022/10/30 06:17:18;;;;;;;28.00;15.70;;;12.60;99.90;;;;;;5039061;28;20243;-72
2022/10/30 06:19:45;;;;;;;24.73;14.33;;;12.60;99.90;;;;;;5047102;28;20215;-72
2022/10/30 06:22:12;;;;;;;27.30;15.70;;;12.60;99.90;;;;;;5038279;28;20210;-71
2022/10/30 06:24:39;;;;;;;31.83;16.20;;;12.60;99.90;;;;;;5047648;28;20299;-71
2022/10/30 06:27:05;;;;;;;33.27;17.07;;;12.60;99.90;;;;;;5023804;28;20237;-71
2022/10/30 06:29:32;;;;;;;35.30;17.40;;;12.60;99.90;;;;;;5028343;28;20231;-71
2022/10/30 06:31:59;;;;;;;29.83;15.73;;;12.60;99.90;;;;;;5031812;28;20291;-71
2022/10/30 06:34:32;;;;;;;35.80;17.73;;;12.60;99.90;;;;;;5047120;28;20349;-73
2022/10/30 06:36:58;;;;;;;32.43;16.27;;;12.60;99.90;;;;;;5049759;28;20205;-72
2022/10/30 06:39:25;;;;;;;30.40;14.83;;;12.60;99.90;;;;;;5046454;28;20212;-72
2022/10/30 06:41:52;;;;;;;25.43;14.97;;;12.70;99.90;;;;;;5043248;28;20243;-72
2022/10/30 06:44:19;;;;;;;27.17;15.27;;;12.60;99.90;;;;;;5051496;28;20263;-72
2022/10/30 06:46:45;;;;;;;28.67;14.60;;;12.60;99.90;;;;;;5044944;28;20205;-71
2022/10/30 06:49:12;;;;;;;27.70;14.90;;;12.60;99.90;;;;;;5048550;28;20650;-70
2022/10/30 06:51:39;;;;;;;22.90;14.20;;;12.60;99.90;;;;;;5024939;28;20221;-72
2022/10/30 06:54:05;;;;;;;30.83;15.37;;;12.60;99.90;;;;;;5046538;28;20296;-71
2022/10/30 06:56:32;;;;;;;32.43;16.37;;;12.60;99.90;;;;;;5051107;28;20209;-72
2022/10/30 06:58:59;;;;;;;31.13;16.80;;;12.60;99.90;;;;;;5050066;28;20288;-71
2022/10/30 07:01:26;;;;;;;29.33;16.23;;;12.60;99.90;;;;;;5046526;28;20291;-71
2022/10/30 07:03:55;;;;;;;28.50;15.60;;;12.50;99.90;;;;;;5044112;28;20205;-72
2022/10/30 07:06:22;;;;;;;27.57;15.07;;;12.60;99.90;;;;;;5030863;28;20212;-73
2022/10/30 07:08:48;;;;;;;34.00;16.53;;;12.60;99.90;;;;;;5048824;28;20292;-71
2022/10/30 07:11:15;;;;;;;27.20;15.73;;;12.70;99.90;;;;;;5046526;28;20216;-71
2022/10/30 07:13:42;;;;;;;31.30;16.30;;;12.70;99.90;;;;;;5029863;28;20682;-72
2022/10/30 07:16:09;;;;;;;28.80;16.87;;;12.70;99.90;;;;;;5049146;28;20331;-72
2022/10/30 07:18:35;;;;;;;33.87;15.77;;;12.80;99.90;;;;;;5042252;28;20653;-72
2022/10/30 07:21:02;;;;;;;34.40;17.43;;;12.80;99.90;;;;;;5048404;28;20229;-71
2022/10/30 07:23:29;;;;;;;25.90;16.10;;;12.80;99.90;;;;;;5044575;28;20217;-71
2022/10/30 07:25:56;;;;;;;27.03;15.97;;;12.90;99.90;;;;;;5050298;28;20303;-71
2022/10/30 07:28:30;;;;;;;36.47;17.83;;;12.90;99.90;;;;;;5024258;28;20661;-72
2022/10/30 07:30:57;;;;;;;33.80;16.20;;;12.90;99.90;;;;;;5049703;28;20289;-72
2022/10/30 07:33:24;;;;;;;32.93;16.67;;;12.90;99.90;;;;;;5046427;28;20692;-72
2022/10/30 07:35:51;;;;;;;37.30;17.07;;;13.00;99.90;;;;;;5044201;28;20554;-70
2022/10/30 07:38:18;;;;;;;31.23;17.53;;;13.00;99.90;;;;;;5046335;28;20293;-71
2022/10/30 07:40:52;;;;;;;30.03;16.80;;;13.10;99.90;;;;;;5026200;28;20280;-71
2022/10/30 07:43:18;;;;;;;28.40;16.27;;;13.10;99.90;;;;;;5043299;28;20197;-72
2022/10/30 07:45:45;;;;;;;31.00;16.17;;;13.10;99.90;;;;;;5044350;28;20237;-70
2022/10/30 07:48:12;;;;;;;30.03;16.73;;;13.20;99.90;;;;;;5022949;28;20210;-71
2022/10/30 07:50:39;;;;;;;27.63;16.20;;;13.20;99.90;;;;;;5043972;28;20634;-72
2022/10/30 07:53:05;;;;;;;34.60;17.10;;;13.30;99.90;;;;;;5040404;28;20654;-72
2022/10/30 07:55:32;;;;;;;29.37;16.43;;;13.40;99.90;;;;;;5049460;28;20775;-70
2022/10/30 07:57:59;;;;;;;27.60;16.17;;;13.40;99.90;;;;;;5044142;28;20288;-71
2022/10/30 08:00:26;;;;;;;29.20;16.97;;;13.50;99.90;;;;;;5044421;28;20200;-70
2022/10/30 08:02:56;;;;;;;32.20;17.73;;;13.50;99.90;;;;;;5041667;28;20252;-72
2022/10/30 08:05:23;;;;;;;30.63;16.83;;;13.60;99.90;;;;;;5030575;28;20280;-72
2022/10/30 08:07:55;;;;;;;28.27;16.30;;;13.60;99.90;;;;;;5044555;28;20551;-71
2022/10/30 08:10:23;;;;;;;33.33;17.10;;;13.60;99.90;;;;;;5047715;28;20204;-71
2022/10/30 08:12:49;;;;;;;29.50;15.83;;;13.70;99.90;;;;;;5045499;28;20251;-72
2022/10/30 08:15:16;;;;;;;27.07;16.60;;;13.70;99.90;;;;;;5032061;28;20311;-71
2022/10/30 08:17:45;;;;;;;30.97;16.67;;;13.80;99.90;;;;;;5042798;28;20303;-71
2022/10/30 08:20:14;;;;;;;28.53;16.60;;;13.90;99.90;;;;;;5048401;28;20684;-71
2022/10/30 08:22:48;;;;;;;34.37;16.87;;;13.90;99.90;;;;;;5045544;28;20300;-71
2022/10/30 08:25:16;;;;;;;31.73;16.33;;;14.00;99.90;;;;;;5049108;28;20267;-71
2022/10/30 08:27:55;;;;;;;30.33;17.50;;;14.00;99.90;;;;;;5025285;28;20343;-72
2022/10/30 08:30:23;;;;;;;29.93;16.33;;;14.10;99.90;;;;;;5043489;28;20287;-72
2022/10/30 08:32:50;;;;;;;34.23;17.17;;;14.10;99.90;;;;;;5043178;28;20193;-71
2022/10/30 08:35:17;;;;;;;28.00;17.10;;;14.20;99.90;;;;;;5027279;28;20260;-72
2022/10/30 08:37:48;;;;;;;30.53;18.03;;;14.20;99.90;;;;;;5025555;28;20221;-71
2022/10/30 08:40:15;;;;;;;29.20;18.03;;;14.30;99.90;;;;;;5040064;28;20278;-71
2022/10/30 08:42:48;;;;;;;27.97;17.70;;;14.40;99.90;;;;;;5045597;28;20284;-71
2022/10/30 08:45:15;;;;;;;30.27;17.17;;;14.40;99.90;;;;;;5043157;28;20194;-71
2022/10/30 08:47:42;;;;;;;30.50;18.40;;;14.50;99.90;;;;;;5040665;28;20638;-70
2022/10/30 08:50:08;;;;;;;32.50;18.03;;;14.50;99.90;;;;;;5045692;28;20655;-71
2022/10/30 08:52:35;;;;;;;30.63;17.33;;;14.60;99.90;;;;;;5048274;28;20217;-71
2022/10/30 08:55:02;;;;;;;29.77;17.10;;;14.60;99.90;;;;;;5042669;28;20221;-70
2022/10/30 08:57:35;;;;;;;28.70;17.33;;;14.70;99.90;;;;;;5045048;28;20279;-72
2022/10/30 09:00:04;;;;;;;38.63;17.90;;;14.80;99.90;;;;;;5039228;28;20291;-72
2022/10/30 09:02:33;;;;;;;26.67;16.73;;;14.80;99.90;;;;;;5048443;28;20236;-71
2022/10/30 09:05:00;;;;;;;30.93;17.80;;;14.90;99.90;;;;;;5042477;28;20200;-71
2022/10/30 09:07:26;;;;;;;30.87;17.23;;;15.00;99.90;;;;;;5029741;28;20686;-71
2022/10/30 09:09:53;;;;;;;33.93;17.53;;;15.00;99.90;;;;;;5045388;28;20227;-71
2022/10/30 09:12:20;;;;;;;27.77;16.70;;;15.10;99.90;;;;;;5046648;28;20194;-73
2022/10/30 09:14:47;;;;;;;30.23;18.07;;;15.20;99.90;;;;;;5045572;28;20197;-71
2022/10/30 09:17:13;;;;;;;31.17;17.63;;;15.20;99.90;;;;;;5048513;28;20568;-71
2022/10/30 09:19:41;;;;;;;30.27;17.73;;;15.30;99.90;;;;;;5025536;28;20305;-72
2022/10/30 09:22:07;;;;;;;31.17;17.42;;;15.30;99.90;;;;;;5028987;28;20299;-71
2022/10/30 09:24:34;;;;;;;29.83;17.57;;;15.30;99.90;;;;;;5046526;28;20197;-71
2022/10/30 09:27:01;;;;;;;29.93;17.27;;;15.40;99.90;;;;;;5024778;28;20612;-71
2022/10/30 09:29:30;;;;;;;30.55;16.52;;;15.50;99.90;;;;;;5041953;28;20288;-72
2022/10/30 09:32:00;;;;;;;28.30;17.33;;;15.50;99.90;;;;;;5029011;28;20300;-71
2022/10/30 09:34:27;;;;;;;30.40;17.90;;;15.60;99.90;;;;;;5046140;28;20216;-72
2022/10/30 09:36:54;;;;;;;28.63;17.75;;;15.70;99.90;;;;;;5041092;28;21047;-71
2022/10/30 09:39:21;;;;;;;28.00;17.23;;;15.70;99.90;;;;;;5048308;28;20741;-70
2022/10/30 09:42:12;;;;;;;25.10;15.68;;;15.80;99.90;;;;;;5022556;28;20212;-71
2022/10/30 09:45:03;;;;;;;30.50;15.07;;;15.90;99.90;;;;;;5039098;28;20214;-71
2022/10/30 09:48:15;;;;;;;25.00;15.18;;;15.90;99.90;;;;;;5044164;28;20207;-71
2022/10/30 09:51:08;;;;;;;28.92;16.23;;;16.10;99.90;;;;;;5043948;28;20621;-71
2022/10/30 09:54:04;;;;;;;27.35;16.70;;;16.10;99.90;;;;;;5044680;28;20288;-72
2022/10/30 09:56:49;;;;;;;27.98;16.52;;;16.20;99.90;;;;;;5041241;28;20661;-71
2022/10/30 09:59:48;;;;;;;31.55;16.63;;;16.30;99.90;;;;;;5042231;28;20319;-72
2022/10/30 10:02:34;;;;;;;25.33;15.20;;;16.40;99.90;;;;;;5042234;28;20747;-72
2022/10/30 10:05:41;;;;;;;32.95;15.95;;;16.50;99.90;;;;;;5048699;28;20197;-71
2022/10/30 10:08:17;;;;;;;25.60;14.95;;;16.60;99.90;;;;;;5045649;28;20192;-72
2022/10/30 10:10:49;;;;;;;22.30;13.38;;;16.70;99.90;;;;;;5040946;28;20207;-72
2022/10/30 10:13:45;;;;;;;25.17;15.55;;;16.80;99.90;;;;;;5042141;28;20197;-71
2022/10/30 10:16:25;;;;;;;29.05;15.40;;;16.90;99.90;;;;;;5000200;28;20323;-71
2022/10/30 10:19:17;;;;;;;28.48;14.35;;;16.90;99.90;;;;;;5046953;28;20232;-72
2022/10/30 10:22:00;;;;;;;28.58;14.30;;;17.00;99.90;;;;;;5042678;28;20305;-73
2022/10/30 10:24:37;;;;;;;31.48;14.25;;;17.10;99.90;;;;;;5043190;28;20213;-72
2022/10/30 10:27:45;;;;;;;22.83;14.10;;;17.20;99.90;;;;;;5044670;28;20185;-71
2022/10/30 10:30:20;;;;;;;27.75;13.85;;;17.40;99.90;;;;;;5045883;28;20296;-71
2022/10/30 10:32:57;;;;;;;27.25;13.90;;;17.40;99.90;;;;;;5041580;28;20271;-70
2022/10/30 10:35:52;;;;;;;22.65;14.38;;;17.50;99.90;;;;;;5043669;28;20648;-71
2022/10/30 10:38:50;;;;;;;24.70;13.48;;;17.60;99.90;;;;;;5042041;28;20209;-71
2022/10/30 10:42:04;;;;;;;28.33;14.10;;;17.70;99.90;;;;;;5037823;28;20308;-72
2022/10/30 10:44:34;;;;;;;26.90;13.63;;;17.80;99.90;;;;;;5043015;28;20343;-71
2022/10/30 10:47:34;;;;;;;30.58;14.35;;;17.90;99.90;;;;;;5030356;28;20197;-72
2022/10/30 10:50:20;;;;;;;22.83;13.30;;;18.10;99.90;;;;;;5031140;28;20225;-71
2022/10/30 10:53:09;;;;;;;28.42;13.65;;;18.20;99.90;;;;;;5039974;28;20217;-72
2022/10/30 10:55:37;;;;;;;17.30;12.30;;;;;;;;;;5045133;28;20220;-72
2022/10/30 10:58:56;;;;;;;25.20;12.65;;;18.50;99.90;;;;;;5034246;28;20293;-71
2022/10/30 11:01:42;;;;;;;24.25;14.05;;;18.60;99.90;;;;;;4958022;28;20684;-71
2022/10/30 11:04:18;;;;;;;24.05;12.77;;;18.80;99.90;;;;;;4963577;28;20683;-71
2022/10/30 11:06:50;;;;;;;20.17;12.85;;;18.90;99.90;;;;;;5022352;28;20216;-72
2022/10/30 11:09:22;;;;;;;23.23;12.73;;;19.00;99.90;;;;;;5029922;28;20232;-70
2022/10/30 11:11:52;;;;;;;27.50;13.85;;;19.10;99.90;;;;;;5046632;28;20237;-72
2022/10/30 11:14:26;;;;;;;24.98;13.02;;;19.20;99.90;;;;;;5044756;28;20208;-71
2022/10/30 11:17:11;;;;;;;23.98;14.07;;;19.30;99.90;;;;;;5047151;28;20328;-72
2022/10/30 11:19:38;;;;;;;25.55;13.57;;;19.30;99.90;;;;;;5044697;28;20631;-71
2022/10/30 11:22:37;;;;;;;26.92;13.98;;;19.40;99.90;;;;;;5049426;28;20225;-71
2022/10/30 11:25:33;;;;;;;20.05;12.43;;;19.50;99.90;;;;;;5040422;28;20198;-72
2022/10/30 11:28:03;;;;;;;24.13;12.60;;;19.50;99.90;;;;;;5042299;28;20566;-71
2022/10/30 11:30:30;;;;;;;25.15;14.32;;;19.60;99.90;;;;;;5038621;28;20704;-71
2022/10/30 11:32:58;;;;;;;28.23;14.98;;;19.70;99.90;;;;;;5046751;28;20208;-71
2022/10/30 11:35:25;;;;;;;30.08;16.60;;;19.70;99.90;;;;;;5030730;28;20555;-72
2022/10/30 11:38:18;;;;;;;26.50;15.25;;;19.80;99.90;;;;;;5042431;28;20232;-72
2022/10/30 11:40:51;;;;;;;24.08;14.38;;;19.80;99.90;;;;;;5043640;28;20384;-71
2022/10/30 11:43:22;;;;;;;25.80;14.40;;;19.90;99.90;;;;;;5045447;28;20621;-71
2022/10/30 11:45:52;;;;;;;23.80;12.73;;;20.00;99.90;;;;;;5046596;28;20284;-71
2022/10/30 11:48:25;;;;;;;28.23;15.02;;;20.00;99.90;;;;;;5057627;28;20929;-72
2022/10/30 11:50:55;;;;;;;24.80;14.25;;;;;;;;;;5052842;28;20236;-72
2022/10/30 11:53:38;;;;;;;26.58;15.57;;;20.20;99.90;;;;;;5051751;28;20706;-71
2022/10/30 11:56:23;;;;;;;27.92;16.25;;;20.30;99.90;;;;;;5046664;28;20237;-71
2022/10/30 11:58:53;;;;;;;27.05;13.85;;;20.40;99.90;;;;;;5046268;28;20514;-72
2022/10/30 12:01:28;;;;;;;27.67;14.75;;;20.60;99.90;;;;;;5043283;28;20273;-71
2022/10/30 12:04:11;;;;;;;24.50;14.23;;;20.70;99.90;;;;;;5052971;28;20243;-71
2022/10/30 12:06:38;;;;;;;22.80;12.85;;;20.80;99.90;;;;;;5043707;28;20217;-71
2022/10/30 12:09:20;;;;;;;26.90;14.82;;;20.80;99.90;;;;;;5050919;28;20288;-72
2022/10/30 12:11:48;;;;;;;22.52;13.35;;;20.90;99.90;;;;;;5033654;28;20716;-72
2022/10/30 12:14:19;;;;;;;24.60;14.23;;;20.90;99.90;;;;;;5047029;28;20288;-71
2022/10/30 12:16:55;;;;;;;22.50;12.80;;;21.00;99.90;;;;;;5045031;28;20320;-70
2022/10/30 12:19:24;;;;;;;21.90;13.20;;;21.00;99.90;;;;;;5054429;28;20344;-71
2022/10/30 12:21:52;;;;;;;22.25;13.90;;;21.00;99.90;;;;;;5055984;28;20713;-71
2022/10/30 12:24:32;;;;;;;26.15;13.27;;;21.10;99.90;;;;;;5057943;28;20615;-71
2022/10/30 12:27:10;;;;;;;23.27;12.93;;;21.00;99.90;;;;;;5058083;28;20692;-72
2022/10/30 12:29:56;;;;;;;23.88;12.88;;;21.00;99.90;;;;;;5054114;28;20226;-71
2022/10/30 12:33:01;;;;;;;25.17;13.35;;;21.00;99.90;;;;;;5057768;28;20196;-71
2022/10/30 12:35:40;;;;;;;26.38;13.88;;;21.00;99.90;;;;;;5042720;28;20197;-70
2022/10/30 12:38:24;;;;;;;24.10;12.85;;;21.00;99.90;;;;;;5045674;28;20206;-71
2022/10/30 12:41:05;;;;;;;21.80;12.05;;;21.00;99.90;;;;;;5030511;28;20540;-70
2022/10/30 12:43:35;;;;;;;19.08;11.27;;;21.00;99.90;;;;;;5043741;28;20414;-71
2022/10/30 12:46:40;;;;;;;25.13;12.60;;;21.00;99.90;;;;;;5045499;28;20205;-71
2022/10/30 12:49:21;;;;;;;22.23;12.52;;;21.00;99.90;;;;;;5024951;28;20224;-71
2022/10/30 12:52:11;;;;;;;18.08;12.30;;;21.00;99.90;;;;;;5040226;28;20669;-71